sensor_id;sensor_type;location;lat;lon;timestamp;P1;durP1;ratioP1;P2;durP2;ratioP2
61704;SDS011;47627;48.078;11.522;2023-03-04T00:01:42;120.20;;;64.85;;
61704;SDS011;47627;48.078;11.522;2023-03-04T00:04:07;119.00;;;63.00;;
61704;SDS011;47627;48.078;11.522;2023-03-04T00:06:32;116.30;;;63.47;;
61704;SDS011;47627;48.078;11.522;2023-03-04T00:08:58;109.97;;;60.47;;
61704;SDS011;47627;48.078;11.522;2023-03-04T00:11:23;114.68;;;62.28;;
61704;SDS011;47627;48.078;11.522;2023-03-04T00:13:48;117.60;;;61.78;;
61704;SDS011;47627;48.078;11.522;2023-03-04T00:16:13;113.20;;;61.55;;
61704;SDS011;47627;48.078;11.522;2023-03-04T00:18:39;108.85;;;61.88;;
61704;SDS011;47627;48.078;11.522;2023-03-04T00:21:04;113.60;;;61.33;;
61704;SDS011;47627;48.078;11.522;2023-03-04T00:23:29;120.07;;;64.85;;
61704;SDS011;47627;48.078;11.522;2023-03-04T00:25:55;109.15;;;60.03;;
61704;SDS011;47627;48.078;11.522;2023-03-04T00:28:20;110.03;;;61.03;;
61704;SDS011;47627;48.078;11.522;2023-03-04T00:30:45;123.18;;;65.38;;
61704;SDS011;47627;48.078;11.522;2023-03-04T00:33:11;114.70;;;60.72;;
61704;SDS011;47627;48.078;11.522;2023-03-04T00:35:36;119.20;;;62.55;;
61704;SDS011;47627;48.078;11.522;2023-03-04T00:38:01;117.55;;;62.28;;
61704;SDS011;47627;48.078;11.522;2023-03-04T00:40:26;115.53;;;62.22;;
61704;SDS011;47627;48.078;11.522;2023-03-04T00:42:52;119.20;;;64.65;;
61704;SDS011;47627;48.078;11.522;2023-03-04T00:45:17;111.10;;;62.05;;
61704;SDS011;47627;48.078;11.522;2023-03-04T00:47:42;114.75;;;60.38;;
61704;SDS011;47627;48.078;11.522;2023-03-04T00:50:08;117.13;;;61.95;;
61704;SDS011;47627;48.078;11.522;2023-03-04T00:52:33;119.13;;;63.00;;
61704;SDS011;47627;48.078;11.522;2023-03-04T00:54:59;117.28;;;61.40;;
61704;SDS011;47627;48.078;11.522;2023-03-04T00:57:24;116.80;;;62.38;;
61704;SDS011;47627;48.078;11.522;2023-03-04T00:59:49;126.68;;;64.53;;
61704;SDS011;47627;48.078;11.522;2023-03-04T01:02:15;117.75;;;64.07;;
61704;SDS011;47627;48.078;11.522;2023-03-04T01:04:40;120.47;;;64.55;;
61704;SDS011;47627;48.078;11.522;2023-03-04T01:07:06;111.15;;;60.00;;
61704;SDS011;47627;48.078;11.522;2023-03-04T01:09:31;110.32;;;59.40;;
61704;SDS011;47627;48.078;11.522;2023-03-04T01:11:56;117.05;;;63.10;;
61704;SDS011;47627;48.078;11.522;2023-03-04T01:14:22;125.57;;;65.72;;
61704;SDS011;47627;48.078;11.522;2023-03-04T01:16:47;114.65;;;62.25;;
61704;SDS011;47627;48.078;11.522;2023-03-04T01:19:13;108.53;;;60.50;;
61704;SDS011;47627;48.078;11.522;2023-03-04T01:21:39;108.28;;;56.75;;
61704;SDS011;47627;48.078;11.522;2023-03-04T01:24:04;126.63;;;64.18;;
61704;SDS011;47627;48.078;11.522;2023-03-04T01:26:30;113.00;;;61.35;;
61704;SDS011;47627;48.078;11.522;2023-03-04T01:28:55;106.25;;;57.45;;
61704;SDS011;47627;48.078;11.522;2023-03-04T01:31:21;114.32;;;62.58;;
61704;SDS011;47627;48.078;11.522;2023-03-04T01:33:46;115.82;;;61.95;;
61704;SDS011;47627;48.078;11.522;2023-03-04T01:36:11;112.93;;;61.38;;
61704;SDS011;47627;48.078;11.522;2023-03-04T01:38:36;114.72;;;61.83;;
61704;SDS011;47627;48.078;11.522;2023-03-04T01:41:02;103.68;;;58.90;;
61704;SDS011;47627;48.078;11.522;2023-03-04T01:43:28;113.03;;;63.45;;
61704;SDS011;47627;48.078;11.522;2023-03-04T01:45:54;112.57;;;59.97;;
61704;SDS011;47627;48.078;11.522;2023-03-04T01:48:22;104.07;;;60.47;;
61704;SDS011;47627;48.078;11.522;2023-03-04T01:50:47;102.70;;;57.92;;
61704;SDS011;47627;48.078;11.522;2023-03-04T01:53:17;114.05;;;61.53;;
61704;SDS011;47627;48.078;11.522;2023-03-04T01:55:43;108.13;;;57.47;;
61704;SDS011;47627;48.078;11.522;2023-03-04T01:58:09;100.15;;;58.42;;
61704;SDS011;47627;48.078;11.522;2023-03-04T02:00:35;108.28;;;58.05;;
61704;SDS011;47627;48.078;11.522;2023-03-04T02:03:03;105.82;;;59.38;;
61704;SDS011;47627;48.078;11.522;2023-03-04T02:05:29;99.50;;;57.35;;
61704;SDS011;47627;48.078;11.522;2023-03-04T02:07:54;100.35;;;56.35;;
61704;SDS011;47627;48.078;11.522;2023-03-04T02:10:21;99.00;;;55.50;;
61704;SDS011;47627;48.078;11.522;2023-03-04T02:12:46;100.18;;;56.95;;
61704;SDS011;47627;48.078;11.522;2023-03-04T02:15:12;104.07;;;57.13;;
61704;SDS011;47627;48.078;11.522;2023-03-04T02:17:37;103.13;;;56.50;;
61704;SDS011;47627;48.078;11.522;2023-03-04T02:22:30;106.75;;;59.63;;
61704;SDS011;47627;48.078;11.522;2023-03-04T02:25:02;105.00;;;59.40;;
61704;SDS011;47627;48.078;11.522;2023-03-04T02:27:29;103.45;;;58.30;;
61704;SDS011;47627;48.078;11.522;2023-03-04T02:29:55;109.88;;;61.50;;
61704;SDS011;47627;48.078;11.522;2023-03-04T02:32:20;106.97;;;59.40;;
61704;SDS011;47627;48.078;11.522;2023-03-04T02:34:46;108.10;;;61.05;;
61704;SDS011;47627;48.078;11.522;2023-03-04T02:37:12;102.40;;;58.15;;
61704;SDS011;47627;48.078;11.522;2023-03-04T02:39:41;106.00;;;57.72;;
61704;SDS011;47627;48.078;11.522;2023-03-04T02:42:09;103.57;;;56.90;;
61704;SDS011;47627;48.078;11.522;2023-03-04T02:44:38;105.38;;;58.95;;
61704;SDS011;47627;48.078;11.522;2023-03-04T02:47:05;103.13;;;56.33;;
61704;SDS011;47627;48.078;11.522;2023-03-04T02:49:31;108.05;;;59.05;;
61704;SDS011;47627;48.078;11.522;2023-03-04T02:51:58;105.88;;;57.47;;
61704;SDS011;47627;48.078;11.522;2023-03-04T02:54:24;110.07;;;60.35;;
61704;SDS011;47627;48.078;11.522;2023-03-04T02:56:51;100.60;;;58.08;;
61704;SDS011;47627;48.078;11.522;2023-03-04T02:59:17;105.43;;;58.58;;
61704;SDS011;47627;48.078;11.522;2023-03-04T03:01:42;96.65;;;54.38;;
61704;SDS011;47627;48.078;11.522;2023-03-04T03:04:08;109.32;;;57.67;;
61704;SDS011;47627;48.078;11.522;2023-03-04T03:06:33;113.30;;;60.83;;
61704;SDS011;47627;48.078;11.522;2023-03-04T03:08:59;108.80;;;59.65;;
61704;SDS011;47627;48.078;11.522;2023-03-04T03:11:24;108.28;;;57.25;;
61704;SDS011;47627;48.078;11.522;2023-03-04T03:13:50;110.00;;;61.35;;
61704;SDS011;47627;48.078;11.522;2023-03-04T03:16:15;109.32;;;58.67;;
61704;SDS011;47627;48.078;11.522;2023-03-04T03:18:41;105.65;;;58.65;;
61704;SDS011;47627;48.078;11.522;2023-03-04T03:21:06;103.05;;;55.47;;
61704;SDS011;47627;48.078;11.522;2023-03-04T03:23:32;106.55;;;56.90;;
61704;SDS011;47627;48.078;11.522;2023-03-04T03:25:57;101.65;;;55.80;;
61704;SDS011;47627;48.078;11.522;2023-03-04T03:28:25;101.65;;;55.80;;
61704;SDS011;47627;48.078;11.522;2023-03-04T03:30:51;101.65;;;56.78;;
61704;SDS011;47627;48.078;11.522;2023-03-04T03:33:17;102.22;;;56.85;;
61704;SDS011;47627;48.078;11.522;2023-03-04T03:35:42;100.43;;;56.35;;
61704;SDS011;47627;48.078;11.522;2023-03-04T03:38:07;101.15;;;54.92;;
61704;SDS011;47627;48.078;11.522;2023-03-04T03:40:32;95.75;;;53.60;;
61704;SDS011;47627;48.078;11.522;2023-03-04T03:42:58;102.28;;;55.72;;
61704;SDS011;47627;48.078;11.522;2023-03-04T03:45:23;97.05;;;54.10;;
61704;SDS011;47627;48.078;11.522;2023-03-04T03:47:48;100.47;;;55.22;;
61704;SDS011;47627;48.078;11.522;2023-03-04T03:50:13;106.40;;;58.28;;
61704;SDS011;47627;48.078;11.522;2023-03-04T03:52:39;105.47;;;56.58;;
61704;SDS011;47627;48.078;11.522;2023-03-04T03:55:04;106.32;;;58.92;;
61704;SDS011;47627;48.078;11.522;2023-03-04T03:57:29;99.22;;;56.05;;
61704;SDS011;47627;48.078;11.522;2023-03-04T03:59:55;96.25;;;54.92;;
61704;SDS011;47627;48.078;11.522;2023-03-04T04:02:20;102.82;;;57.25;;
61704;SDS011;47627;48.078;11.522;2023-03-04T04:04:46;103.10;;;56.85;;
61704;SDS011;47627;48.078;11.522;2023-03-04T04:07:11;120.05;;;61.22;;
61704;SDS011;47627;48.078;11.522;2023-03-04T04:09:37;115.78;;;61.00;;
61704;SDS011;47627;48.078;11.522;2023-03-04T04:12:03;110.90;;;59.55;;
61704;SDS011;47627;48.078;11.522;2023-03-04T04:14:28;116.85;;;59.88;;
61704;SDS011;47627;48.078;11.522;2023-03-04T04:16:54;122.63;;;64.72;;
61704;SDS011;47627;48.078;11.522;2023-03-04T04:19:19;118.70;;;62.33;;
61704;SDS011;47627;48.078;11.522;2023-03-04T04:21:45;127.18;;;62.80;;
61704;SDS011;47627;48.078;11.522;2023-03-04T04:24:10;121.65;;;63.63;;
61704;SDS011;47627;48.078;11.522;2023-03-04T04:26:35;119.03;;;62.78;;
61704;SDS011;47627;48.078;11.522;2023-03-04T04:29:00;123.88;;;63.35;;
61704;SDS011;47627;48.078;11.522;2023-03-04T04:31:26;124.15;;;62.83;;
61704;SDS011;47627;48.078;11.522;2023-03-04T04:33:51;117.32;;;60.35;;
61704;SDS011;47627;48.078;11.522;2023-03-04T04:36:16;129.88;;;66.00;;
61704;SDS011;47627;48.078;11.522;2023-03-04T04:38:42;117.00;;;60.40;;
61704;SDS011;47627;48.078;11.522;2023-03-04T04:41:12;130.45;;;63.22;;
61704;SDS011;47627;48.078;11.522;2023-03-04T04:43:41;133.95;;;65.38;;
61704;SDS011;47627;48.078;11.522;2023-03-04T04:46:07;125.22;;;65.65;;
61704;SDS011;47627;48.078;11.522;2023-03-04T04:48:35;130.75;;;68.63;;
61704;SDS011;47627;48.078;11.522;2023-03-04T04:51:03;124.45;;;64.57;;
61704;SDS011;47627;48.078;11.522;2023-03-04T04:53:29;126.28;;;66.03;;
61704;SDS011;47627;48.078;11.522;2023-03-04T04:55:54;125.65;;;63.78;;
61704;SDS011;47627;48.078;11.522;2023-03-04T04:58:19;126.57;;;68.30;;
61704;SDS011;47627;48.078;11.522;2023-03-04T05:00:45;122.38;;;63.50;;
61704;SDS011;47627;48.078;11.522;2023-03-04T05:03:10;127.97;;;63.78;;
61704;SDS011;47627;48.078;11.522;2023-03-04T05:05:35;126.10;;;65.65;;
61704;SDS011;47627;48.078;11.522;2023-03-04T05:08:00;123.63;;;64.25;;
61704;SDS011;47627;48.078;11.522;2023-03-04T05:10:32;122.72;;;64.53;;
61704;SDS011;47627;48.078;11.522;2023-03-04T05:12:57;121.60;;;65.00;;
61704;SDS011;47627;48.078;11.522;2023-03-04T05:15:22;121.07;;;64.82;;
61704;SDS011;47627;48.078;11.522;2023-03-04T05:17:47;118.43;;;64.57;;
61704;SDS011;47627;48.078;11.522;2023-03-04T05:20:16;111.30;;;60.70;;
61704;SDS011;47627;48.078;11.522;2023-03-04T05:22:41;115.13;;;61.13;;
61704;SDS011;47627;48.078;11.522;2023-03-04T05:25:06;107.32;;;59.83;;
61704;SDS011;47627;48.078;11.522;2023-03-04T05:27:31;106.60;;;59.47;;
61704;SDS011;47627;48.078;11.522;2023-03-04T05:29:57;108.03;;;59.63;;
61704;SDS011;47627;48.078;11.522;2023-03-04T05:32:25;97.63;;;56.42;;
61704;SDS011;47627;48.078;11.522;2023-03-04T05:34:50;104.78;;;58.35;;
61704;SDS011;47627;48.078;11.522;2023-03-04T05:37:15;100.45;;;56.67;;
61704;SDS011;47627;48.078;11.522;2023-03-04T05:39:40;109.55;;;60.53;;
61704;SDS011;47627;48.078;11.522;2023-03-04T05:42:06;105.03;;;57.92;;
61704;SDS011;47627;48.078;11.522;2023-03-04T05:44:31;102.45;;;57.78;;
61704;SDS011;47627;48.078;11.522;2023-03-04T05:46:56;106.85;;;58.83;;
61704;SDS011;47627;48.078;11.522;2023-03-04T05:49:21;101.22;;;56.53;;
61704;SDS011;47627;48.078;11.522;2023-03-04T05:51:46;97.55;;;54.92;;
61704;SDS011;47627;48.078;11.522;2023-03-04T05:54:12;104.10;;;58.33;;
61704;SDS011;47627;48.078;11.522;2023-03-04T05:56:37;101.63;;;55.85;;
61704;SDS011;47627;48.078;11.522;2023-03-04T05:59:02;99.70;;;56.25;;
61704;SDS011;47627;48.078;11.522;2023-03-04T06:01:27;100.20;;;55.83;;
61704;SDS011;47627;48.078;11.522;2023-03-04T06:03:54;103.15;;;56.85;;
61704;SDS011;47627;48.078;11.522;2023-03-04T06:06:19;97.82;;;55.47;;
61704;SDS011;47627;48.078;11.522;2023-03-04T06:08:44;97.25;;;54.90;;
61704;SDS011;47627;48.078;11.522;2023-03-04T06:11:10;94.30;;;53.28;;
61704;SDS011;47627;48.078;11.522;2023-03-04T06:13:35;93.20;;;54.75;;
61704;SDS011;47627;48.078;11.522;2023-03-04T06:16:00;93.30;;;52.92;;
61704;SDS011;47627;48.078;11.522;2023-03-04T06:18:26;88.53;;;52.42;;
61704;SDS011;47627;48.078;11.522;2023-03-04T06:21:01;92.72;;;51.72;;
61704;SDS011;47627;48.078;11.522;2023-03-04T06:23:27;88.05;;;50.75;;
61704;SDS011;47627;48.078;11.522;2023-03-04T06:25:53;87.05;;;51.63;;
61704;SDS011;47627;48.078;11.522;2023-03-04T06:28:18;92.13;;;51.85;;
61704;SDS011;47627;48.078;11.522;2023-03-04T06:30:43;90.95;;;50.95;;
61704;SDS011;47627;48.078;11.522;2023-03-04T06:33:09;85.75;;;50.95;;
61704;SDS011;47627;48.078;11.522;2023-03-04T06:35:34;85.13;;;50.80;;
61704;SDS011;47627;48.078;11.522;2023-03-04T06:37:59;87.00;;;49.55;;
61704;SDS011;47627;48.078;11.522;2023-03-04T06:40:24;89.00;;;48.90;;
61704;SDS011;47627;48.078;11.522;2023-03-04T06:42:49;83.00;;;49.40;;
61704;SDS011;47627;48.078;11.522;2023-03-04T06:45:15;82.32;;;47.80;;
61704;SDS011;47627;48.078;11.522;2023-03-04T06:47:40;85.22;;;50.95;;
61704;SDS011;47627;48.078;11.522;2023-03-04T06:50:05;82.15;;;49.15;;
61704;SDS011;47627;48.078;11.522;2023-03-04T06:52:31;81.30;;;48.75;;
61704;SDS011;47627;48.078;11.522;2023-03-04T06:54:56;81.28;;;49.28;;
61704;SDS011;47627;48.078;11.522;2023-03-04T06:57:21;82.60;;;46.17;;
61704;SDS011;47627;48.078;11.522;2023-03-04T06:59:46;81.85;;;48.85;;
61704;SDS011;47627;48.078;11.522;2023-03-04T07:02:12;77.22;;;48.28;;
61704;SDS011;47627;48.078;11.522;2023-03-04T07:04:37;78.80;;;46.70;;
61704;SDS011;47627;48.078;11.522;2023-03-04T07:07:02;82.30;;;52.72;;
61704;SDS011;47627;48.078;11.522;2023-03-04T07:09:28;76.07;;;48.20;;
61704;SDS011;47627;48.078;11.522;2023-03-04T07:11:53;67.85;;;43.38;;
61704;SDS011;47627;48.078;11.522;2023-03-04T07:14:18;64.50;;;40.92;;
61704;SDS011;47627;48.078;11.522;2023-03-04T07:16:43;72.53;;;46.45;;
61704;SDS011;47627;48.078;11.522;2023-03-04T07:19:09;63.28;;;40.20;;
61704;SDS011;47627;48.078;11.522;2023-03-04T07:21:34;58.67;;;37.90;;
61704;SDS011;47627;48.078;11.522;2023-03-04T07:23:59;62.50;;;39.40;;
61704;SDS011;47627;48.078;11.522;2023-03-04T07:26:24;61.80;;;38.80;;
61704;SDS011;47627;48.078;11.522;2023-03-04T07:28:50;59.38;;;37.92;;
61704;SDS011;47627;48.078;11.522;2023-03-04T07:31:21;61.92;;;39.03;;
61704;SDS011;47627;48.078;11.522;2023-03-04T07:33:47;65.53;;;40.53;;
61704;SDS011;47627;48.078;11.522;2023-03-04T07:36:12;64.03;;;42.35;;
61704;SDS011;47627;48.078;11.522;2023-03-04T07:38:41;65.32;;;43.22;;
61704;SDS011;47627;48.078;11.522;2023-03-04T07:41:07;64.78;;;41.15;;
61704;SDS011;47627;48.078;11.522;2023-03-04T07:43:32;65.30;;;42.65;;
61704;SDS011;47627;48.078;11.522;2023-03-04T07:45:58;71.25;;;43.05;;
61704;SDS011;47627;48.078;11.522;2023-03-04T07:48:23;66.45;;;41.80;;
61704;SDS011;47627;48.078;11.522;2023-03-04T07:50:48;64.13;;;41.78;;
61704;SDS011;47627;48.078;11.522;2023-03-04T07:53:14;66.38;;;40.88;;
61704;SDS011;47627;48.078;11.522;2023-03-04T07:55:39;62.97;;;41.40;;
61704;SDS011;47627;48.078;11.522;2023-03-04T07:58:04;69.35;;;40.70;;
61704;SDS011;47627;48.078;11.522;2023-03-04T08:00:29;64.30;;;39.85;;
61704;SDS011;47627;48.078;11.522;2023-03-04T08:02:55;64.57;;;41.47;;
61704;SDS011;47627;48.078;11.522;2023-03-04T08:05:20;68.47;;;40.55;;
61704;SDS011;47627;48.078;11.522;2023-03-04T08:07:45;66.00;;;42.05;;
61704;SDS011;47627;48.078;11.522;2023-03-04T08:10:10;65.20;;;42.22;;
61704;SDS011;47627;48.078;11.522;2023-03-04T08:12:36;66.85;;;41.67;;
61704;SDS011;47627;48.078;11.522;2023-03-04T08:15:01;64.53;;;39.47;;
61704;SDS011;47627;48.078;11.522;2023-03-04T08:17:27;67.05;;;43.80;;
61704;SDS011;47627;48.078;11.522;2023-03-04T08:19:54;64.68;;;40.92;;
61704;SDS011;47627;48.078;11.522;2023-03-04T08:22:19;67.55;;;42.60;;
61704;SDS011;47627;48.078;11.522;2023-03-04T08:24:44;62.17;;;41.30;;
61704;SDS011;47627;48.078;11.522;2023-03-04T08:27:09;65.05;;;41.75;;
61704;SDS011;47627;48.078;11.522;2023-03-04T08:29:34;65.10;;;41.20;;
61704;SDS011;47627;48.078;11.522;2023-03-04T08:32:00;68.70;;;41.92;;
61704;SDS011;47627;48.078;11.522;2023-03-04T08:34:26;68.45;;;42.92;;
61704;SDS011;47627;48.078;11.522;2023-03-04T08:36:51;67.80;;;42.63;;
61704;SDS011;47627;48.078;11.522;2023-03-04T08:39:17;70.13;;;43.88;;
61704;SDS011;47627;48.078;11.522;2023-03-04T08:41:42;64.40;;;40.28;;
61704;SDS011;47627;48.078;11.522;2023-03-04T08:44:08;71.97;;;44.80;;
61704;SDS011;47627;48.078;11.522;2023-03-04T08:46:34;70.68;;;43.28;;
61704;SDS011;47627;48.078;11.522;2023-03-04T08:49:00;66.30;;;41.95;;
61704;SDS011;47627;48.078;11.522;2023-03-04T08:51:25;65.63;;;41.67;;
61704;SDS011;47627;48.078;11.522;2023-03-04T08:53:50;65.32;;;40.95;;
61704;SDS011;47627;48.078;11.522;2023-03-04T08:56:16;64.00;;;40.72;;
61704;SDS011;47627;48.078;11.522;2023-03-04T08:58:41;62.45;;;39.17;;
61704;SDS011;47627;48.078;11.522;2023-03-04T09:01:07;65.07;;;40.35;;
61704;SDS011;47627;48.078;11.522;2023-03-04T09:03:32;62.55;;;38.85;;
61704;SDS011;47627;48.078;11.522;2023-03-04T09:05:58;59.50;;;38.00;;
61704;SDS011;47627;48.078;11.522;2023-03-04T09:08:25;61.03;;;37.05;;
61704;SDS011;47627;48.078;11.522;2023-03-04T09:10:51;60.40;;;38.75;;
61704;SDS011;47627;48.078;11.522;2023-03-04T09:13:16;56.97;;;35.95;;
61704;SDS011;47627;48.078;11.522;2023-03-04T09:15:43;56.55;;;35.65;;
61704;SDS011;47627;48.078;11.522;2023-03-04T09:18:08;51.70;;;33.15;;
61704;SDS011;47627;48.078;11.522;2023-03-04T09:20:34;51.35;;;33.20;;
61704;SDS011;47627;48.078;11.522;2023-03-04T09:22:59;49.08;;;31.80;;
61704;SDS011;47627;48.078;11.522;2023-03-04T09:25:24;50.35;;;32.65;;
61704;SDS011;47627;48.078;11.522;2023-03-04T09:27:49;49.88;;;32.63;;
61704;SDS011;47627;48.078;11.522;2023-03-04T09:30:15;53.17;;;33.97;;
61704;SDS011;47627;48.078;11.522;2023-03-04T09:32:40;52.15;;;33.63;;
61704;SDS011;47627;48.078;11.522;2023-03-04T09:35:06;53.08;;;34.30;;
61704;SDS011;47627;48.078;11.522;2023-03-04T09:46:43;57.10;;;35.03;;
61704;SDS011;47627;48.078;11.522;2023-03-04T09:49:11;51.80;;;35.35;;
61704;SDS011;47627;48.078;11.522;2023-03-04T09:54:09;52.58;;;34.72;;
61704;SDS011;47627;48.078;11.522;2023-03-04T09:56:39;53.72;;;35.20;;
61704;SDS011;47627;48.078;11.522;2023-03-04T09:59:27;52.45;;;33.90;;
61704;SDS011;47627;48.078;11.522;2023-03-04T10:09:05;51.58;;;33.40;;
61704;SDS011;47627;48.078;11.522;2023-03-04T10:21:38;52.88;;;33.67;;
61704;SDS011;47627;48.078;11.522;2023-03-04T10:24:12;52.90;;;35.03;;
61704;SDS011;47627;48.078;11.522;2023-03-04T10:26:39;54.72;;;34.72;;
61704;SDS011;47627;48.078;11.522;2023-03-04T10:29:07;47.95;;;31.42;;
61704;SDS011;47627;48.078;11.522;2023-03-04T10:31:34;49.10;;;32.15;;
61704;SDS011;47627;48.078;11.522;2023-03-04T10:34:01;47.72;;;32.35;;
61704;SDS011;47627;48.078;11.522;2023-03-04T10:38:55;48.35;;;30.20;;
61704;SDS011;47627;48.078;11.522;2023-03-04T10:41:22;50.58;;;31.17;;
61704;SDS011;47627;48.078;11.522;2023-03-04T10:44:35;44.42;;;28.83;;
61704;SDS011;47627;48.078;11.522;2023-03-04T10:46:45;45.75;;;29.08;;
61704;SDS011;47627;48.078;11.522;2023-03-04T10:49:12;47.13;;;28.45;;
61704;SDS011;47627;48.078;11.522;2023-03-04T10:51:43;41.90;;;28.30;;
61704;SDS011;47627;48.078;11.522;2023-03-04T10:54:10;45.65;;;28.10;;
61704;SDS011;47627;48.078;11.522;2023-03-04T10:56:41;44.33;;;27.37;;
61704;SDS011;47627;48.078;11.522;2023-03-04T11:01:54;45.72;;;29.65;;
61704;SDS011;47627;48.078;11.522;2023-03-04T11:04:24;47.42;;;29.42;;
61704;SDS011;47627;48.078;11.522;2023-03-04T11:06:50;47.00;;;28.52;;
61704;SDS011;47627;48.078;11.522;2023-03-04T11:09:23;44.10;;;29.20;;
61704;SDS011;47627;48.078;11.522;2023-03-04T11:11:49;41.17;;;27.93;;
61704;SDS011;47627;48.078;11.522;2023-03-04T11:14:24;48.40;;;29.90;;
61704;SDS011;47627;48.078;11.522;2023-03-04T11:16:59;50.58;;;29.85;;
61704;SDS011;47627;48.078;11.522;2023-03-04T11:19:28;47.70;;;31.83;;
61704;SDS011;47627;48.078;11.522;2023-03-04T11:21:55;47.90;;;30.85;;
61704;SDS011;47627;48.078;11.522;2023-03-04T11:24:23;46.80;;;30.80;;
61704;SDS011;47627;48.078;11.522;2023-03-04T11:39:36;46.30;;;30.40;;
61704;SDS011;47627;48.078;11.522;2023-03-04T11:44:46;52.03;;;30.70;;
61704;SDS011;47627;48.078;11.522;2023-03-04T11:49:45;49.63;;;33.65;;
61704;SDS011;47627;48.078;11.522;2023-03-04T12:00:39;49.08;;;33.50;;
61704;SDS011;47627;48.078;11.522;2023-03-04T12:06:08;51.80;;;34.28;;
61704;SDS011;47627;48.078;11.522;2023-03-04T12:08:27;53.03;;;34.28;;
61704;SDS011;47627;48.078;11.522;2023-03-04T12:13:37;56.10;;;35.67;;
61704;SDS011;47627;48.078;11.522;2023-03-04T12:25:24;53.88;;;34.70;;
61704;SDS011;47627;48.078;11.522;2023-03-04T12:48:33;50.88;;;32.45;;
61704;SDS011;47627;48.078;11.522;2023-03-04T12:57:24;54.42;;;34.70;;
61704;SDS011;47627;48.078;11.522;2023-03-04T12:59:58;55.55;;;34.20;;
61704;SDS011;47627;48.078;11.522;2023-03-04T13:02:33;48.53;;;31.45;;
61704;SDS011;47627;48.078;11.522;2023-03-04T13:07:40;50.17;;;31.48;;
61704;SDS011;47627;48.078;11.522;2023-03-04T13:10:09;51.67;;;33.13;;
61704;SDS011;47627;48.078;11.522;2023-03-04T13:12:48;48.38;;;33.08;;
61704;SDS011;47627;48.078;11.522;2023-03-04T13:15:25;50.50;;;33.47;;
61704;SDS011;47627;48.078;11.522;2023-03-04T13:20:42;56.20;;;34.25;;
61704;SDS011;47627;48.078;11.522;2023-03-04T13:25:34;48.75;;;32.33;;
61704;SDS011;47627;48.078;11.522;2023-03-04T13:51:24;39.65;;;26.08;;
61704;SDS011;47627;48.078;11.522;2023-03-04T13:56:22;41.15;;;27.50;;
61704;SDS011;47627;48.078;11.522;2023-03-04T13:58:49;39.47;;;26.30;;
61704;SDS011;47627;48.078;11.522;2023-03-04T14:01:23;37.00;;;25.52;;
61704;SDS011;47627;48.078;11.522;2023-03-04T14:03:49;38.00;;;26.25;;
61704;SDS011;47627;48.078;11.522;2023-03-04T14:06:15;39.83;;;25.95;;
61704;SDS011;47627;48.078;11.522;2023-03-04T14:08:42;37.58;;;26.02;;
61704;SDS011;47627;48.078;11.522;2023-03-04T14:11:11;38.65;;;26.00;;
61704;SDS011;47627;48.078;11.522;2023-03-04T14:13:37;37.05;;;26.15;;
61704;SDS011;47627;48.078;11.522;2023-03-04T14:16:02;37.10;;;25.27;;
61704;SDS011;47627;48.078;11.522;2023-03-04T14:18:27;38.28;;;25.90;;
61704;SDS011;47627;48.078;11.522;2023-03-04T14:20:53;35.47;;;24.63;;
61704;SDS011;47627;48.078;11.522;2023-03-04T14:23:30;37.63;;;25.67;;
61704;SDS011;47627;48.078;11.522;2023-03-04T14:26:12;40.97;;;26.77;;
61704;SDS011;47627;48.078;11.522;2023-03-04T14:28:41;42.80;;;27.88;;
61704;SDS011;47627;48.078;11.522;2023-03-04T14:31:09;36.75;;;25.30;;
61704;SDS011;47627;48.078;11.522;2023-03-04T14:33:38;41.05;;;25.70;;
61704;SDS011;47627;48.078;11.522;2023-03-04T14:36:13;35.58;;;24.30;;
61704;SDS011;47627;48.078;11.522;2023-03-04T14:38:39;35.85;;;23.85;;
61704;SDS011;47627;48.078;11.522;2023-03-04T14:41:16;32.47;;;23.20;;
61704;SDS011;47627;48.078;11.522;2023-03-04T14:46:14;36.65;;;24.38;;
61704;SDS011;47627;48.078;11.522;2023-03-04T14:48:42;32.55;;;22.77;;
61704;SDS011;47627;48.078;11.522;2023-03-04T14:51:27;32.60;;;22.83;;
61704;SDS011;47627;48.078;11.522;2023-03-04T14:53:54;35.30;;;22.83;;
61704;SDS011;47627;48.078;11.522;2023-03-04T14:56:25;34.65;;;22.23;;
61704;SDS011;47627;48.078;11.522;2023-03-04T14:58:52;28.98;;;21.45;;
61704;SDS011;47627;48.078;11.522;2023-03-04T15:01:19;31.85;;;21.10;;
61704;SDS011;47627;48.078;11.522;2023-03-04T15:03:55;30.35;;;21.42;;
61704;SDS011;47627;48.078;11.522;2023-03-04T15:06:22;29.40;;;20.20;;
61704;SDS011;47627;48.078;11.522;2023-03-04T15:11:23;29.80;;;20.55;;
61704;SDS011;47627;48.078;11.522;2023-03-04T15:13:50;34.47;;;22.15;;
61704;SDS011;47627;48.078;11.522;2023-03-04T15:16:17;34.08;;;22.33;;
61704;SDS011;47627;48.078;11.522;2023-03-04T15:18:59;30.02;;;20.70;;
61704;SDS011;47627;48.078;11.522;2023-03-04T15:21:30;31.00;;;22.17;;
61704;SDS011;47627;48.078;11.522;2023-03-04T15:23:56;31.30;;;20.80;;
61704;SDS011;47627;48.078;11.522;2023-03-04T15:26:21;28.75;;;20.73;;
61704;SDS011;47627;48.078;11.522;2023-03-04T15:28:46;29.15;;;20.67;;
61704;SDS011;47627;48.078;11.522;2023-03-04T15:31:15;32.40;;;20.55;;
61704;SDS011;47627;48.078;11.522;2023-03-04T15:33:41;28.98;;;19.98;;
61704;SDS011;47627;48.078;11.522;2023-03-04T15:36:08;33.22;;;20.48;;
61704;SDS011;47627;48.078;11.522;2023-03-04T15:38:36;31.83;;;21.00;;
61704;SDS011;47627;48.078;11.522;2023-03-04T15:41:01;29.52;;;18.65;;
61704;SDS011;47627;48.078;11.522;2023-03-04T15:43:27;28.75;;;20.20;;
61704;SDS011;47627;48.078;11.522;2023-03-04T15:45:52;32.60;;;20.55;;
61704;SDS011;47627;48.078;11.522;2023-03-04T15:48:17;32.15;;;20.63;;
61704;SDS011;47627;48.078;11.522;2023-03-04T15:50:43;36.00;;;23.67;;
61704;SDS011;47627;48.078;11.522;2023-03-04T15:53:12;30.65;;;20.45;;
61704;SDS011;47627;48.078;11.522;2023-03-04T15:55:38;32.22;;;20.92;;
61704;SDS011;47627;48.078;11.522;2023-03-04T15:58:03;33.33;;;21.85;;
61704;SDS011;47627;48.078;11.522;2023-03-04T16:00:29;33.38;;;21.70;;
61704;SDS011;47627;48.078;11.522;2023-03-04T16:02:56;33.85;;;22.05;;
61704;SDS011;47627;48.078;11.522;2023-03-04T16:05:21;32.75;;;21.00;;
61704;SDS011;47627;48.078;11.522;2023-03-04T16:07:47;31.77;;;21.08;;
61704;SDS011;47627;48.078;11.522;2023-03-04T16:10:16;34.90;;;21.55;;
61704;SDS011;47627;48.078;11.522;2023-03-04T16:12:42;34.35;;;22.17;;
61704;SDS011;47627;48.078;11.522;2023-03-04T16:15:12;30.42;;;20.50;;
61704;SDS011;47627;48.078;11.522;2023-03-04T16:17:37;32.72;;;20.40;;
61704;SDS011;47627;48.078;11.522;2023-03-04T16:20:08;32.58;;;21.58;;
61704;SDS011;47627;48.078;11.522;2023-03-04T16:22:34;35.47;;;22.05;;
61704;SDS011;47627;48.078;11.522;2023-03-04T16:24:59;34.90;;;22.45;;